Aérodrome :
LOGIN :

S'inscrire | Disclaimer

   EN    FR    IT 

 










Légende :    VFR   VFR Marginal   IFR   IFR Intensif   IFR Très Intensif
Visi : 
Plafond : 
>= 8 km
>= 3000ft
5 à 8 km
1000 à 3000 ft
1500m à 5 km
500 à 1000 ft
800 à 1500m
200 à 500 ft
< 800m
< 200 ft
Symboles :   Orages  Brouillard  Fortes neiges  Fortes précipitations  Vent > 20 kt
SIGMETs :   Divers  Orages  Givrage  Turbulence  Onde Orograph.  Cendres Volcan.







- Altitude de l'aérodrome : 464 ft
- Code IATA : EVX
- Voir les cartes d'approche


LFOE - Evreux

DERNIER METAR :
  • 130600Z AUTO 10012KT 5000 BR OVC007 M00/M01 Q1014 NOSIG

METARs EXPIRÉS :
  • 130530Z AUTO 09013KT 4600 BR OVC006 M00/M01 Q1013 NOSIG
  • 130500Z AUTO 09011KT 5000 BR OVC007 M00/M01 Q1014 TEMPO OVC004
  • 130430Z AUTO 09012KT 5000 BR OVC007 M00/M01 Q1014 TEMPO OVC004
  • 130400Z AUTO 09013KT 5000 BR OVC007 M00/M01 Q1015 TEMPO OVC004
  • 130330Z AUTO 09011KT 5000 BR OVC006 M00/M01 Q1015 TEMPO OVC004

TAF TAF LFOE
Valide du 13 à 03h jusqu'au 14 à 03h UTC


130200Z 1303/1403 10010KT 4000 BR OVC007
TEMPO 1303/1306 3000 BR OVC004
BECMG 1303/1305 09010G20KT
BECMG 1308/1310 9999 NSW BKN010
BECMG 1310/1312 SCT020
Pas de NOTAMs connus pour ce terrain.



MET'MAP, la Météo Aéronautique d'un coup d'oeil ! - Copyright ORBIFLY Décembre 2007 - Disclaimer

ORBIFLY MET'MAP TEAM :

Programmation & Développement : Alexandra Zaïnal
Conception & Développement : Baudouin d'Aumeries
Co-Programmation & Développement : Marc-Olivier Méhu
Soutien technique & logistique : Manuel Goepfert

Contact : metmap@orbifly.com




SOURCES & CREDITS :

   NOAA